Flight Briefing for CPX449

Departure Arrival
Sacramento International Airport (KSMF)
Click to view FAA NOTAMS
El Paso International Airport (KELP)
Click to view FAA NOTAMS
Departure Time Arrival Time
N/A N/A
Aircraft Distance
B757-200SF 852nm
Departure METAR Arrival METAR
KSMF 230553Z 32006KT 10SM BKN110 BKN180 18/12 A2973 RMK AO2 SLP067 T01830122 10244 20178 51000 KELP 230551Z 26006KT 10SM CLR 24/M06 A2977 RMK AO2 SLP005 T02441056 10333 20244 51019
Suggested Route
RVRCT2 RALEY JSICA Q130 ROCCY KD36Q CABNO SLNNK WAZKO1


View recent IFR Routes data
Notes



Charts and Procedures

Charts for KSMF
No chart available
Charts for KELP
No chart available

Windy.com Weather Map